sensor_id;sensor_type;location;lat;lon;timestamp;P1;durP1;ratioP1;P2;durP2;ratioP2
56457;SDS011;42360;42.918;12.366;2022-12-07T00:01:23;25.35;;;16.52;;
56457;SDS011;42360;42.918;12.366;2022-12-07T00:03:51;23.73;;;14.82;;
56457;SDS011;42360;42.918;12.366;2022-12-07T00:06:18;20.90;;;14.20;;
56457;SDS011;42360;42.918;12.366;2022-12-07T00:08:45;20.33;;;14.07;;
56457;SDS011;42360;42.918;12.366;2022-12-07T00:11:12;21.30;;;14.10;;
56457;SDS011;42360;42.918;12.366;2022-12-07T00:13:42;19.90;;;13.65;;
56457;SDS011;42360;42.918;12.366;2022-12-07T00:16:13;18.15;;;13.45;;
56457;SDS011;42360;42.918;12.366;2022-12-07T00:18:42;21.20;;;13.98;;
56457;SDS011;42360;42.918;12.366;2022-12-07T00:21:12;19.13;;;14.15;;
56457;SDS011;42360;42.918;12.366;2022-12-07T00:23:39;22.85;;;13.68;;
56457;SDS011;42360;42.918;12.366;2022-12-07T00:26:11;22.30;;;14.77;;
56457;SDS011;42360;42.918;12.366;2022-12-07T00:28:41;16.20;;;13.02;;
56457;SDS011;42360;42.918;12.366;2022-12-07T00:31:11;18.55;;;13.05;;
56457;SDS011;42360;42.918;12.366;2022-12-07T00:33:38;18.42;;;12.43;;
56457;SDS011;42360;42.918;12.366;2022-12-07T00:36:05;16.63;;;13.20;;
56457;SDS011;42360;42.918;12.366;2022-12-07T00:38:33;18.02;;;12.60;;
56457;SDS011;42360;42.918;12.366;2022-12-07T00:41:05;18.05;;;13.10;;
56457;SDS011;42360;42.918;12.366;2022-12-07T00:43:35;17.95;;;12.07;;
56457;SDS011;42360;42.918;12.366;2022-12-07T00:46:01;19.80;;;12.43;;
56457;SDS011;42360;42.918;12.366;2022-12-07T00:48:27;16.38;;;12.30;;
56457;SDS011;42360;42.918;12.366;2022-12-07T00:50:53;17.75;;;12.70;;
56457;SDS011;42360;42.918;12.366;2022-12-07T00:53:18;17.15;;;13.23;;
56457;SDS011;42360;42.918;12.366;2022-12-07T00:55:44;14.38;;;11.70;;
56457;SDS011;42360;42.918;12.366;2022-12-07T00:58:10;19.35;;;12.10;;
56457;SDS011;42360;42.918;12.366;2022-12-07T01:00:36;17.75;;;12.40;;
56457;SDS011;42360;42.918;12.366;2022-12-07T01:03:04;18.33;;;11.50;;
56457;SDS011;42360;42.918;12.366;2022-12-07T01:05:30;15.50;;;10.10;;
56457;SDS011;42360;42.918;12.366;2022-12-07T01:07:55;17.88;;;11.65;;
56457;SDS011;42360;42.918;12.366;2022-12-07T01:10:21;16.45;;;10.40;;
56457;SDS011;42360;42.918;12.366;2022-12-07T01:12:47;16.67;;;11.68;;
56457;SDS011;42360;42.918;12.366;2022-12-07T01:15:12;16.75;;;11.68;;
56457;SDS011;42360;42.918;12.366;2022-12-07T01:17:38;16.48;;;11.02;;
56457;SDS011;42360;42.918;12.366;2022-12-07T01:20:04;17.60;;;9.32;;
56457;SDS011;42360;42.918;12.366;2022-12-07T01:22:30;13.55;;;10.50;;
56457;SDS011;42360;42.918;12.366;2022-12-07T01:24:56;15.43;;;10.30;;
56457;SDS011;42360;42.918;12.366;2022-12-07T01:27:21;15.27;;;10.40;;
56457;SDS011;42360;42.918;12.366;2022-12-07T01:29:47;16.33;;;10.18;;
56457;SDS011;42360;42.918;12.366;2022-12-07T01:32:12;12.70;;;9.65;;
56457;SDS011;42360;42.918;12.366;2022-12-07T01:34:38;18.88;;;10.55;;
56457;SDS011;42360;42.918;12.366;2022-12-07T01:37:04;13.48;;;10.00;;
56457;SDS011;42360;42.918;12.366;2022-12-07T01:39:29;15.35;;;10.43;;
56457;SDS011;42360;42.918;12.366;2022-12-07T01:41:55;13.57;;;9.63;;
56457;SDS011;42360;42.918;12.366;2022-12-07T01:44:22;14.90;;;10.05;;
56457;SDS011;42360;42.918;12.366;2022-12-07T01:46:51;22.17;;;10.45;;
56457;SDS011;42360;42.918;12.366;2022-12-07T01:49:26;15.40;;;10.13;;
56457;SDS011;42360;42.918;12.366;2022-12-07T01:52:04;15.55;;;9.45;;
56457;SDS011;42360;42.918;12.366;2022-12-07T01:54:32;16.95;;;9.80;;
56457;SDS011;42360;42.918;12.366;2022-12-07T01:56:58;16.83;;;9.32;;
56457;SDS011;42360;42.918;12.366;2022-12-07T01:59:25;17.55;;;8.55;;
56457;SDS011;42360;42.918;12.366;2022-12-07T02:01:51;14.63;;;9.13;;
56457;SDS011;42360;42.918;12.366;2022-12-07T02:04:18;14.80;;;9.63;;
56457;SDS011;42360;42.918;12.366;2022-12-07T02:06:44;16.52;;;9.68;;
56457;SDS011;42360;42.918;12.366;2022-12-07T02:09:11;14.15;;;9.68;;
56457;SDS011;42360;42.918;12.366;2022-12-07T02:11:37;13.23;;;9.60;;
56457;SDS011;42360;42.918;12.366;2022-12-07T02:14:04;13.55;;;9.25;;
56457;SDS011;42360;42.918;12.366;2022-12-07T02:21:51;10.68;;;8.65;;
56457;SDS011;42360;42.918;12.366;2022-12-07T02:30:00;12.48;;;9.80;;
56457;SDS011;42360;42.918;12.366;2022-12-07T02:38:20;12.60;;;10.23;;
56457;SDS011;42360;42.918;12.366;2022-12-07T02:43:19;12.50;;;10.52;;
56457;SDS011;42360;42.918;12.366;2022-12-07T02:45:48;13.75;;;9.63;;
56457;SDS011;42360;42.918;12.366;2022-12-07T02:48:17;14.02;;;9.93;;
56457;SDS011;42360;42.918;12.366;2022-12-07T02:50:53;11.45;;;9.45;;
56457;SDS011;42360;42.918;12.366;2022-12-07T02:53:32;11.73;;;9.77;;
56457;SDS011;42360;42.918;12.366;2022-12-07T03:07:27;14.27;;;9.48;;
56457;SDS011;42360;42.918;12.366;2022-12-07T03:17:39;11.20;;;9.38;;
56457;SDS011;42360;42.918;12.366;2022-12-07T03:20:09;12.38;;;8.93;;
56457;SDS011;42360;42.918;12.366;2022-12-07T03:22:36;11.23;;;9.20;;
56457;SDS011;42360;42.918;12.366;2022-12-07T03:25:04;11.90;;;9.75;;
56457;SDS011;42360;42.918;12.366;2022-12-07T03:27:37;15.27;;;10.23;;
56457;SDS011;42360;42.918;12.366;2022-12-07T03:32:43;11.60;;;9.48;;
56457;SDS011;42360;42.918;12.366;2022-12-07T03:35:18;11.40;;;9.15;;
56457;SDS011;42360;42.918;12.366;2022-12-07T03:43:15;12.77;;;9.13;;
56457;SDS011;42360;42.918;12.366;2022-12-07T03:45:43;17.50;;;10.30;;
56457;SDS011;42360;42.918;12.366;2022-12-07T03:48:16;12.18;;;9.13;;
56457;SDS011;42360;42.918;12.366;2022-12-07T03:51:11;14.43;;;9.93;;
56457;SDS011;42360;42.918;12.366;2022-12-07T03:53:53;15.18;;;9.80;;
56457;SDS011;42360;42.918;12.366;2022-12-07T03:56:22;11.98;;;9.75;;
56457;SDS011;42360;42.918;12.366;2022-12-07T03:58:48;11.45;;;9.35;;
56457;SDS011;42360;42.918;12.366;2022-12-07T04:01:14;14.55;;;9.85;;
56457;SDS011;42360;42.918;12.366;2022-12-07T04:03:39;11.70;;;9.90;;
56457;SDS011;42360;42.918;12.366;2022-12-07T04:06:05;14.27;;;10.23;;
56457;SDS011;42360;42.918;12.366;2022-12-07T04:08:31;13.38;;;9.75;;
56457;SDS011;42360;42.918;12.366;2022-12-07T04:10:56;11.02;;;8.90;;
56457;SDS011;42360;42.918;12.366;2022-12-07T04:13:22;13.43;;;10.27;;
56457;SDS011;42360;42.918;12.366;2022-12-07T04:15:48;12.18;;;9.90;;
56457;SDS011;42360;42.918;12.366;2022-12-07T04:18:13;15.32;;;10.00;;
56457;SDS011;42360;42.918;12.366;2022-12-07T04:20:39;13.27;;;10.27;;
56457;SDS011;42360;42.918;12.366;2022-12-07T04:23:04;14.30;;;10.02;;
56457;SDS011;42360;42.918;12.366;2022-12-07T04:25:30;13.68;;;10.45;;
56457;SDS011;42360;42.918;12.366;2022-12-07T04:27:56;12.70;;;8.80;;
56457;SDS011;42360;42.918;12.366;2022-12-07T04:30:21;13.73;;;9.82;;
56457;SDS011;42360;42.918;12.366;2022-12-07T04:32:47;14.25;;;9.75;;
56457;SDS011;42360;42.918;12.366;2022-12-07T04:35:12;12.65;;;10.00;;
56457;SDS011;42360;42.918;12.366;2022-12-07T04:37:38;13.45;;;9.73;;
56457;SDS011;42360;42.918;12.366;2022-12-07T04:40:05;14.05;;;10.55;;
56457;SDS011;42360;42.918;12.366;2022-12-07T04:42:32;15.00;;;10.02;;
56457;SDS011;42360;42.918;12.366;2022-12-07T04:44:58;12.27;;;9.85;;
56457;SDS011;42360;42.918;12.366;2022-12-07T04:47:24;11.10;;;9.00;;
56457;SDS011;42360;42.918;12.366;2022-12-07T04:49:49;12.35;;;9.65;;
56457;SDS011;42360;42.918;12.366;2022-12-07T04:52:15;11.88;;;9.60;;
56457;SDS011;42360;42.918;12.366;2022-12-07T04:54:40;13.13;;;9.55;;
56457;SDS011;42360;42.918;12.366;2022-12-07T04:57:06;13.82;;;9.73;;
56457;SDS011;42360;42.918;12.366;2022-12-07T04:59:32;12.43;;;9.43;;
56457;SDS011;42360;42.918;12.366;2022-12-07T05:01:57;13.98;;;10.00;;
56457;SDS011;42360;42.918;12.366;2022-12-07T05:04:23;11.68;;;9.32;;
56457;SDS011;42360;42.918;12.366;2022-12-07T05:06:48;11.90;;;9.45;;
56457;SDS011;42360;42.918;12.366;2022-12-07T05:09:14;10.35;;;9.27;;
56457;SDS011;42360;42.918;12.366;2022-12-07T05:11:40;13.48;;;9.93;;
56457;SDS011;42360;42.918;12.366;2022-12-07T05:14:18;12.40;;;8.98;;
56457;SDS011;42360;42.918;12.366;2022-12-07T05:16:46;13.07;;;10.30;;
56457;SDS011;42360;42.918;12.366;2022-12-07T05:19:12;11.13;;;9.95;;
56457;SDS011;42360;42.918;12.366;2022-12-07T05:21:38;12.45;;;10.45;;
56457;SDS011;42360;42.918;12.366;2022-12-07T05:24:04;12.05;;;9.75;;
56457;SDS011;42360;42.918;12.366;2022-12-07T05:26:31;12.40;;;9.85;;
56457;SDS011;42360;42.918;12.366;2022-12-07T05:28:57;12.85;;;9.63;;
56457;SDS011;42360;42.918;12.366;2022-12-07T05:31:23;12.35;;;10.50;;
56457;SDS011;42360;42.918;12.366;2022-12-07T05:33:49;12.05;;;9.45;;
56457;SDS011;42360;42.918;12.366;2022-12-07T05:36:15;13.57;;;11.07;;
56457;SDS011;42360;42.918;12.366;2022-12-07T05:38:41;11.57;;;9.98;;
56457;SDS011;42360;42.918;12.366;2022-12-07T05:41:07;11.73;;;9.48;;
56457;SDS011;42360;42.918;12.366;2022-12-07T05:43:53;12.15;;;10.00;;
56457;SDS011;42360;42.918;12.366;2022-12-07T05:46:19;11.93;;;9.52;;
56457;SDS011;42360;42.918;12.366;2022-12-07T05:48:44;10.48;;;9.23;;
56457;SDS011;42360;42.918;12.366;2022-12-07T05:51:10;11.73;;;9.73;;
56457;SDS011;42360;42.918;12.366;2022-12-07T05:53:36;12.82;;;10.13;;
56457;SDS011;42360;42.918;12.366;2022-12-07T05:56:01;11.93;;;9.68;;
56457;SDS011;42360;42.918;12.366;2022-12-07T05:58:27;11.85;;;10.05;;
56457;SDS011;42360;42.918;12.366;2022-12-07T06:01:11;10.50;;;8.43;;
56457;SDS011;42360;42.918;12.366;2022-12-07T06:03:36;11.90;;;9.32;;
56457;SDS011;42360;42.918;12.366;2022-12-07T06:06:02;12.30;;;9.07;;
56457;SDS011;42360;42.918;12.366;2022-12-07T06:08:28;13.07;;;10.00;;
56457;SDS011;42360;42.918;12.366;2022-12-07T06:10:53;11.57;;;9.82;;
56457;SDS011;42360;42.918;12.366;2022-12-07T06:13:39;11.60;;;9.57;;
56457;SDS011;42360;42.918;12.366;2022-12-07T06:16:04;11.10;;;9.23;;
56457;SDS011;42360;42.918;12.366;2022-12-07T06:18:30;13.98;;;10.15;;
56457;SDS011;42360;42.918;12.366;2022-12-07T06:20:56;12.25;;;10.10;;
56457;SDS011;42360;42.918;12.366;2022-12-07T06:23:22;10.45;;;9.38;;
56457;SDS011;42360;42.918;12.366;2022-12-07T06:25:47;10.55;;;9.30;;
56457;SDS011;42360;42.918;12.366;2022-12-07T06:28:13;11.60;;;9.45;;
56457;SDS011;42360;42.918;12.366;2022-12-07T06:30:38;10.95;;;9.90;;
56457;SDS011;42360;42.918;12.366;2022-12-07T06:33:04;10.93;;;8.75;;
56457;SDS011;42360;42.918;12.366;2022-12-07T06:35:31;12.15;;;9.02;;
56457;SDS011;42360;42.918;12.366;2022-12-07T06:37:57;13.13;;;9.52;;
56457;SDS011;42360;42.918;12.366;2022-12-07T06:40:23;9.57;;;8.55;;
56457;SDS011;42360;42.918;12.366;2022-12-07T06:42:49;11.20;;;8.65;;
56457;SDS011;42360;42.918;12.366;2022-12-07T06:45:14;11.65;;;9.77;;
56457;SDS011;42360;42.918;12.366;2022-12-07T06:47:40;11.10;;;9.20;;
56457;SDS011;42360;42.918;12.366;2022-12-07T06:50:06;14.65;;;11.60;;
56457;SDS011;42360;42.918;12.366;2022-12-07T06:52:32;13.70;;;10.35;;
56457;SDS011;42360;42.918;12.366;2022-12-07T06:54:58;14.93;;;10.45;;
56457;SDS011;42360;42.918;12.366;2022-12-07T06:57:24;11.15;;;9.65;;
56457;SDS011;42360;42.918;12.366;2022-12-07T06:59:50;11.80;;;10.48;;
56457;SDS011;42360;42.918;12.366;2022-12-07T07:02:16;13.05;;;10.70;;
56457;SDS011;42360;42.918;12.366;2022-12-07T07:04:42;14.57;;;11.82;;
56457;SDS011;42360;42.918;12.366;2022-12-07T07:07:07;15.40;;;13.40;;
56457;SDS011;42360;42.918;12.366;2022-12-07T07:09:33;12.98;;;10.45;;
56457;SDS011;42360;42.918;12.366;2022-12-07T07:11:59;11.68;;;8.98;;
56457;SDS011;42360;42.918;12.366;2022-12-07T07:14:24;20.60;;;13.93;;
56457;SDS011;42360;42.918;12.366;2022-12-07T07:16:50;12.02;;;9.27;;
56457;SDS011;42360;42.918;12.366;2022-12-07T07:19:16;12.35;;;9.82;;
56457;SDS011;42360;42.918;12.366;2022-12-07T07:21:41;11.95;;;9.40;;
56457;SDS011;42360;42.918;12.366;2022-12-07T07:24:07;12.57;;;9.48;;
56457;SDS011;42360;42.918;12.366;2022-12-07T07:26:32;10.55;;;8.75;;
56457;SDS011;42360;42.918;12.366;2022-12-07T07:28:58;11.68;;;9.68;;
56457;SDS011;42360;42.918;12.366;2022-12-07T07:31:23;10.07;;;8.38;;
56457;SDS011;42360;42.918;12.366;2022-12-07T07:33:49;10.35;;;9.18;;
56457;SDS011;42360;42.918;12.366;2022-12-07T07:36:15;11.50;;;9.18;;
56457;SDS011;42360;42.918;12.366;2022-12-07T07:38:40;10.25;;;9.18;;
56457;SDS011;42360;42.918;12.366;2022-12-07T07:41:06;17.63;;;10.88;;
56457;SDS011;42360;42.918;12.366;2022-12-07T07:43:32;11.18;;;9.32;;
56457;SDS011;42360;42.918;12.366;2022-12-07T07:45:58;12.65;;;9.27;;
56457;SDS011;42360;42.918;12.366;2022-12-07T07:48:23;11.52;;;9.88;;
56457;SDS011;42360;42.918;12.366;2022-12-07T07:50:50;14.55;;;10.00;;
56457;SDS011;42360;42.918;12.366;2022-12-07T07:53:16;12.25;;;10.07;;
56457;SDS011;42360;42.918;12.366;2022-12-07T07:55:49;10.80;;;9.70;;
56457;SDS011;42360;42.918;12.366;2022-12-07T07:58:15;11.57;;;10.38;;
56457;SDS011;42360;42.918;12.366;2022-12-07T08:00:41;11.85;;;10.38;;
56457;SDS011;42360;42.918;12.366;2022-12-07T08:03:07;12.60;;;10.18;;
56457;SDS011;42360;42.918;12.366;2022-12-07T08:05:32;12.80;;;10.13;;
56457;SDS011;42360;42.918;12.366;2022-12-07T08:07:58;12.90;;;10.15;;
56457;SDS011;42360;42.918;12.366;2022-12-07T08:10:23;11.73;;;9.95;;
56457;SDS011;42360;42.918;12.366;2022-12-07T08:12:49;11.90;;;9.95;;
56457;SDS011;42360;42.918;12.366;2022-12-07T08:15:33;12.52;;;11.23;;
56457;SDS011;42360;42.918;12.366;2022-12-07T08:17:59;13.77;;;10.35;;
56457;SDS011;42360;42.918;12.366;2022-12-07T08:20:24;14.10;;;11.57;;
56457;SDS011;42360;42.918;12.366;2022-12-07T08:22:50;16.20;;;9.15;;
56457;SDS011;42360;42.918;12.366;2022-12-07T08:25:16;10.40;;;8.50;;
56457;SDS011;42360;42.918;12.366;2022-12-07T08:27:42;18.83;;;12.52;;
56457;SDS011;42360;42.918;12.366;2022-12-07T08:30:08;12.00;;;7.95;;
56457;SDS011;42360;42.918;12.366;2022-12-07T08:32:34;11.38;;;6.75;;
56457;SDS011;42360;42.918;12.366;2022-12-07T08:34:59;12.00;;;7.80;;
56457;SDS011;42360;42.918;12.366;2022-12-07T08:37:25;10.82;;;7.97;;
56457;SDS011;42360;42.918;12.366;2022-12-07T08:39:50;12.23;;;7.43;;
56457;SDS011;42360;42.918;12.366;2022-12-07T08:42:16;11.07;;;8.27;;
56457;SDS011;42360;42.918;12.366;2022-12-07T08:44:42;11.13;;;6.72;;
56457;SDS011;42360;42.918;12.366;2022-12-07T08:47:07;11.63;;;8.18;;
56457;SDS011;42360;42.918;12.366;2022-12-07T08:49:38;13.40;;;8.30;;
56457;SDS011;42360;42.918;12.366;2022-12-07T08:54:31;8.80;;;7.60;;
56457;SDS011;42360;42.918;12.366;2022-12-07T08:56:59;12.80;;;8.63;;
56457;SDS011;42360;42.918;12.366;2022-12-07T08:59:25;13.90;;;9.55;;
56457;SDS011;42360;42.918;12.366;2022-12-07T09:01:51;17.38;;;8.60;;
56457;SDS011;42360;42.918;12.366;2022-12-07T09:04:16;12.40;;;9.07;;
56457;SDS011;42360;42.918;12.366;2022-12-07T09:06:42;13.43;;;10.18;;
56457;SDS011;42360;42.918;12.366;2022-12-07T09:09:07;10.77;;;9.52;;
56457;SDS011;42360;42.918;12.366;2022-12-07T09:11:34;9.90;;;7.93;;
56457;SDS011;42360;42.918;12.366;2022-12-07T09:14:00;15.40;;;7.80;;
56457;SDS011;42360;42.918;12.366;2022-12-07T09:16:25;13.93;;;7.57;;
56457;SDS011;42360;42.918;12.366;2022-12-07T09:18:51;10.38;;;7.28;;
56457;SDS011;42360;42.918;12.366;2022-12-07T09:21:17;11.90;;;6.72;;
56457;SDS011;42360;42.918;12.366;2022-12-07T09:23:42;10.73;;;5.95;;
56457;SDS011;42360;42.918;12.366;2022-12-07T09:26:08;11.32;;;6.63;;
56457;SDS011;42360;42.918;12.366;2022-12-07T09:28:33;10.95;;;7.03;;
56457;SDS011;42360;42.918;12.366;2022-12-07T09:30:59;12.27;;;6.78;;
56457;SDS011;42360;42.918;12.366;2022-12-07T09:33:25;15.10;;;8.50;;
56457;SDS011;42360;42.918;12.366;2022-12-07T09:35:51;16.77;;;8.73;;
56457;SDS011;42360;42.918;12.366;2022-12-07T09:38:17;16.15;;;8.43;;
56457;SDS011;42360;42.918;12.366;2022-12-07T09:40:43;8.65;;;6.80;;
56457;SDS011;42360;42.918;12.366;2022-12-07T09:43:16;12.15;;;8.18;;
56457;SDS011;42360;42.918;12.366;2022-12-07T09:45:43;12.93;;;7.60;;
56457;SDS011;42360;42.918;12.366;2022-12-07T09:48:20;8.50;;;7.57;;
56457;SDS011;42360;42.918;12.366;2022-12-07T09:50:57;10.13;;;7.50;;
56457;SDS011;42360;42.918;12.366;2022-12-07T09:53:30;9.68;;;6.47;;
56457;SDS011;42360;42.918;12.366;2022-12-07T09:55:59;11.23;;;8.40;;
56457;SDS011;42360;42.918;12.366;2022-12-07T09:58:25;12.45;;;7.95;;
56457;SDS011;42360;42.918;12.366;2022-12-07T10:00:56;10.13;;;7.63;;
56457;SDS011;42360;42.918;12.366;2022-12-07T10:03:25;11.82;;;8.10;;
56457;SDS011;42360;42.918;12.366;2022-12-07T10:05:52;10.98;;;9.13;;
56457;SDS011;42360;42.918;12.366;2022-12-07T10:08:18;12.18;;;8.50;;
56457;SDS011;42360;42.918;12.366;2022-12-07T10:10:44;13.20;;;8.43;;
56457;SDS011;42360;42.918;12.366;2022-12-07T10:13:15;11.35;;;7.68;;
56457;SDS011;42360;42.918;12.366;2022-12-07T10:16:04;8.50;;;7.35;;
56457;SDS011;42360;42.918;12.366;2022-12-07T10:18:34;11.32;;;7.43;;
56457;SDS011;42360;42.918;12.366;2022-12-07T10:21:14;13.27;;;7.97;;
56457;SDS011;42360;42.918;12.366;2022-12-07T10:26:28;10.40;;;8.98;;
56457;SDS011;42360;42.918;12.366;2022-12-07T10:28:56;8.40;;;7.57;;
56457;SDS011;42360;42.918;12.366;2022-12-07T10:31:24;12.20;;;7.82;;
56457;SDS011;42360;42.918;12.366;2022-12-07T10:33:51;14.43;;;7.45;;
56457;SDS011;42360;42.918;12.366;2022-12-07T10:36:23;14.10;;;8.43;;
56457;SDS011;42360;42.918;12.366;2022-12-07T10:39:02;12.90;;;8.63;;
56457;SDS011;42360;42.918;12.366;2022-12-07T10:41:52;10.07;;;8.00;;
56457;SDS011;42360;42.918;12.366;2022-12-07T10:44:29;10.82;;;7.65;;
56457;SDS011;42360;42.918;12.366;2022-12-07T10:52:42;8.52;;;6.40;;
56457;SDS011;42360;42.918;12.366;2022-12-07T11:00:37;8.25;;;5.97;;
56457;SDS011;42360;42.918;12.366;2022-12-07T11:03:23;9.20;;;6.00;;
56457;SDS011;42360;42.918;12.366;2022-12-07T11:06:01;7.70;;;5.97;;
56457;SDS011;42360;42.918;12.366;2022-12-07T11:09:16;9.15;;;6.53;;
56457;SDS011;42360;42.918;12.366;2022-12-07T11:12:07;8.45;;;5.30;;
56457;SDS011;42360;42.918;12.366;2022-12-07T11:14:48;13.00;;;6.50;;
56457;SDS011;42360;42.918;12.366;2022-12-07T11:19:54;6.43;;;4.60;;
56457;SDS011;42360;42.918;12.366;2022-12-07T11:25:40;9.65;;;5.60;;
56457;SDS011;42360;42.918;12.366;2022-12-07T11:33:57;7.40;;;4.82;;
56457;SDS011;42360;42.918;12.366;2022-12-07T11:41:51;9.02;;;4.25;;
56457;SDS011;42360;42.918;12.366;2022-12-07T11:44:30;7.70;;;4.70;;
56457;SDS011;42360;42.918;12.366;2022-12-07T11:52:26;11.40;;;4.00;;
56457;SDS011;42360;42.918;12.366;2022-12-07T11:54:54;8.63;;;4.85;;
56457;SDS011;42360;42.918;12.366;2022-12-07T11:57:24;7.65;;;4.10;;
56457;SDS011;42360;42.918;12.366;2022-12-07T12:02:35;5.53;;;3.35;;
56457;SDS011;42360;42.918;12.366;2022-12-07T12:07:43;5.65;;;3.10;;
56457;SDS011;42360;42.918;12.366;2022-12-07T12:10:18;6.45;;;3.53;;
56457;SDS011;42360;42.918;12.366;2022-12-07T12:16:01;9.25;;;3.70;;
56457;SDS011;42360;42.918;12.366;2022-12-07T12:20:57;7.85;;;5.40;;
56457;SDS011;42360;42.918;12.366;2022-12-07T12:23:48;7.25;;;5.07;;
56457;SDS011;42360;42.918;12.366;2022-12-07T12:26:20;8.55;;;5.05;;
56457;SDS011;42360;42.918;12.366;2022-12-07T12:34:01;9.23;;;4.43;;
56457;SDS011;42360;42.918;12.366;2022-12-07T12:46:57;7.00;;;5.13;;
56457;SDS011;42360;42.918;12.366;2022-12-07T12:51:50;4.57;;;3.85;;
56457;SDS011;42360;42.918;12.366;2022-12-07T12:54:21;8.02;;;4.18;;
56457;SDS011;42360;42.918;12.366;2022-12-07T13:02:21;6.60;;;3.58;;
56457;SDS011;42360;42.918;12.366;2022-12-07T13:04:50;6.68;;;4.75;;
56457;SDS011;42360;42.918;12.366;2022-12-07T13:15:46;9.80;;;6.43;;
56457;SDS011;42360;42.918;12.366;2022-12-07T13:28:51;12.45;;;6.82;;
56457;SDS011;42360;42.918;12.366;2022-12-07T13:34:27;13.40;;;5.80;;
56457;SDS011;42360;42.918;12.366;2022-12-07T13:36:54;11.27;;;5.60;;
56457;SDS011;42360;42.918;12.366;2022-12-07T13:39:21;10.73;;;7.00;;
56457;SDS011;42360;42.918;12.366;2022-12-07T13:41:52;11.00;;;7.18;;
56457;SDS011;42360;42.918;12.366;2022-12-07T13:44:20;11.43;;;7.90;;
56457;SDS011;42360;42.918;12.366;2022-12-07T13:46:48;11.88;;;8.02;;
56457;SDS011;42360;42.918;12.366;2022-12-07T13:49:16;13.55;;;9.73;;
56457;SDS011;42360;42.918;12.366;2022-12-07T13:51:42;11.52;;;8.55;;
56457;SDS011;42360;42.918;12.366;2022-12-07T13:54:12;13.32;;;9.82;;
56457;SDS011;42360;42.918;12.366;2022-12-07T13:56:38;10.93;;;9.73;;
56457;SDS011;42360;42.918;12.366;2022-12-07T13:59:13;12.70;;;9.73;;
56457;SDS011;42360;42.918;12.366;2022-12-07T14:01:44;18.17;;;11.13;;
56457;SDS011;42360;42.918;12.366;2022-12-07T14:04:45;16.95;;;11.82;;
56457;SDS011;42360;42.918;12.366;2022-12-07T14:07:20;16.27;;;11.90;;
56457;SDS011;42360;42.918;12.366;2022-12-07T14:09:54;20.17;;;13.07;;
56457;SDS011;42360;42.918;12.366;2022-12-07T14:12:21;13.88;;;10.50;;
56457;SDS011;42360;42.918;12.366;2022-12-07T14:14:47;16.20;;;10.55;;
56457;SDS011;42360;42.918;12.366;2022-12-07T14:17:20;14.95;;;10.02;;
56457;SDS011;42360;42.918;12.366;2022-12-07T14:19:56;11.90;;;9.27;;
56457;SDS011;42360;42.918;12.366;2022-12-07T14:22:24;12.60;;;9.95;;
56457;SDS011;42360;42.918;12.366;2022-12-07T14:27:38;18.20;;;10.05;;
56457;SDS011;42360;42.918;12.366;2022-12-07T14:30:04;12.45;;;9.13;;
56457;SDS011;42360;42.918;12.366;2022-12-07T14:32:30;12.13;;;9.85;;
56457;SDS011;42360;42.918;12.366;2022-12-07T14:37:35;14.07;;;9.07;;
56457;SDS011;42360;42.918;12.366;2022-12-07T14:40:01;12.27;;;9.65;;
56457;SDS011;42360;42.918;12.366;2022-12-07T14:42:28;13.23;;;9.57;;
56457;SDS011;42360;42.918;12.366;2022-12-07T14:44:56;21.08;;;14.45;;
56457;SDS011;42360;42.918;12.366;2022-12-07T14:47:22;20.52;;;11.07;;
56457;SDS011;42360;42.918;12.366;2022-12-07T14:49:49;16.98;;;10.23;;
56457;SDS011;42360;42.918;12.366;2022-12-07T14:52:21;23.30;;;13.07;;
56457;SDS011;42360;42.918;12.366;2022-12-07T14:54:48;15.70;;;12.73;;
56457;SDS011;42360;42.918;12.366;2022-12-07T14:57:14;14.07;;;11.23;;
56457;SDS011;42360;42.918;12.366;2022-12-07T14:59:40;15.52;;;11.57;;
56457;SDS011;42360;42.918;12.366;2022-12-07T15:02:06;14.52;;;10.40;;
56457;SDS011;42360;42.918;12.366;2022-12-07T15:04:34;13.80;;;9.70;;
56457;SDS011;42360;42.918;12.366;2022-12-07T15:07:01;14.80;;;10.65;;
56457;SDS011;42360;42.918;12.366;2022-12-07T15:09:28;13.50;;;9.63;;
56457;SDS011;42360;42.918;12.366;2022-12-07T15:11:54;17.60;;;11.00;;
56457;SDS011;42360;42.918;12.366;2022-12-07T15:14:20;28.92;;;15.52;;
56457;SDS011;42360;42.918;12.366;2022-12-07T15:16:45;13.38;;;9.00;;
56457;SDS011;42360;42.918;12.366;2022-12-07T15:19:13;12.25;;;9.13;;
56457;SDS011;42360;42.918;12.366;2022-12-07T15:21:43;15.45;;;11.25;;
56457;SDS011;42360;42.918;12.366;2022-12-07T15:24:10;16.25;;;11.20;;
56457;SDS011;42360;42.918;12.366;2022-12-07T15:26:36;16.58;;;12.23;;
56457;SDS011;42360;42.918;12.366;2022-12-07T15:29:02;18.83;;;12.65;;
56457;SDS011;42360;42.918;12.366;2022-12-07T15:31:28;19.00;;;12.60;;
56457;SDS011;42360;42.918;12.366;2022-12-07T15:33:54;16.63;;;12.68;;
56457;SDS011;42360;42.918;12.366;2022-12-07T15:36:20;18.17;;;10.68;;
56457;SDS011;42360;42.918;12.366;2022-12-07T15:38:48;15.70;;;11.43;;
56457;SDS011;42360;42.918;12.366;2022-12-07T15:41:13;16.25;;;11.20;;
56457;SDS011;42360;42.918;12.366;2022-12-07T15:43:39;16.98;;;10.75;;
56457;SDS011;42360;42.918;12.366;2022-12-07T15:46:23;17.10;;;12.18;;
56457;SDS011;42360;42.918;12.366;2022-12-07T15:48:49;17.05;;;12.23;;
56457;SDS011;42360;42.918;12.366;2022-12-07T15:51:14;17.33;;;11.07;;
56457;SDS011;42360;42.918;12.366;2022-12-07T15:53:40;19.85;;;12.60;;
56457;SDS011;42360;42.918;12.366;2022-12-07T15:56:06;30.45;;;20.33;;
56457;SDS011;42360;42.918;12.366;2022-12-07T15:58:32;53.00;;;32.08;;
56457;SDS011;42360;42.918;12.366;2022-12-07T16:00:58;31.80;;;19.05;;
56457;SDS011;42360;42.918;12.366;2022-12-07T16:03:24;26.25;;;16.42;;
56457;SDS011;42360;42.918;12.366;2022-12-07T16:05:50;25.45;;;14.70;;
56457;SDS011;42360;42.918;12.366;2022-12-07T16:08:16;18.83;;;12.30;;
56457;SDS011;42360;42.918;12.366;2022-12-07T16:10:41;18.20;;;13.13;;
56457;SDS011;42360;42.918;12.366;2022-12-07T16:13:11;18.05;;;12.20;;
56457;SDS011;42360;42.918;12.366;2022-12-07T16:15:39;17.73;;;10.32;;
56457;SDS011;42360;42.918;12.366;2022-12-07T16:18:04;14.52;;;10.43;;
56457;SDS011;42360;42.918;12.366;2022-12-07T16:20:30;15.65;;;10.02;;
56457;SDS011;42360;42.918;12.366;2022-12-07T16:22:56;12.68;;;9.30;;
56457;SDS011;42360;42.918;12.366;2022-12-07T16:25:22;11.77;;;10.57;;
56457;SDS011;42360;42.918;12.366;2022-12-07T16:27:47;15.60;;;9.95;;
56457;SDS011;42360;42.918;12.366;2022-12-07T16:30:14;14.20;;;10.27;;
56457;SDS011;42360;42.918;12.366;2022-12-07T16:32:41;13.70;;;9.18;;
56457;SDS011;42360;42.918;12.366;2022-12-07T16:35:07;15.18;;;10.10;;
56457;SDS011;42360;42.918;12.366;2022-12-07T16:37:33;14.68;;;9.93;;
56457;SDS011;42360;42.918;12.366;2022-12-07T16:39:58;14.23;;;9.95;;
56457;SDS011;42360;42.918;12.366;2022-12-07T16:42:24;16.92;;;10.60;;
56457;SDS011;42360;42.918;12.366;2022-12-07T16:44:50;14.40;;;10.15;;
56457;SDS011;42360;42.918;12.366;2022-12-07T16:47:15;13.13;;;9.13;;
56457;SDS011;42360;42.918;12.366;2022-12-07T16:49:42;14.73;;;10.00;;
56457;SDS011;42360;42.918;12.366;2022-12-07T16:52:08;13.27;;;9.77;;